sensor_id;sensor_type;location;lat;lon;timestamp;pressure;altitude;pressure_sealevel;temperature;humidity
48200;BME280;33990;44.602;10.976;2023-04-26T00:02:22;100739.06;;;20.30;52.48
48200;BME280;33990;44.602;10.976;2023-04-26T00:04:53;100739.06;;;20.30;52.21
48200;BME280;33990;44.602;10.976;2023-04-26T00:07:25;100743.56;;;20.29;52.22
48200;BME280;33990;44.602;10.976;2023-04-26T00:09:52;100734.66;;;20.29;52.18
48200;BME280;33990;44.602;10.976;2023-04-26T00:12:20;100739.19;;;20.28;52.34
48200;BME280;33990;44.602;10.976;2023-04-26T00:14:48;100742.72;;;20.29;52.29
48200;BME280;33990;44.602;10.976;2023-04-26T00:17:15;100733.81;;;20.28;52.32
48200;BME280;33990;44.602;10.976;2023-04-26T00:19:43;100736.50;;;20.28;52.11
48200;BME280;33990;44.602;10.976;2023-04-26T00:22:11;100731.28;;;20.27;52.22
48200;BME280;33990;44.602;10.976;2023-04-26T00:24:39;100739.19;;;20.28;52.26
48200;BME280;33990;44.602;10.976;2023-04-26T00:27:06;100743.03;;;20.25;52.17
48200;BME280;33990;44.602;10.976;2023-04-26T00:29:36;100746.56;;;20.26;52.18
48200;BME280;33990;44.602;10.976;2023-04-26T00:32:03;100744.00;;;20.24;52.18
48200;BME280;33990;44.602;10.976;2023-04-26T00:34:35;100757.44;;;20.24;52.14
48200;BME280;33990;44.602;10.976;2023-04-26T00:37:03;100748.41;;;20.25;52.12
48200;BME280;33990;44.602;10.976;2023-04-26T00:39:31;100736.78;;;20.25;52.14
48200;BME280;33990;44.602;10.976;2023-04-26T00:41:58;100746.69;;;20.24;52.21
48200;BME280;33990;44.602;10.976;2023-04-26T00:44:26;100745.84;;;20.24;52.03
48200;BME280;33990;44.602;10.976;2023-04-26T00:46:54;100747.69;;;20.23;52.06
48200;BME280;33990;44.602;10.976;2023-04-26T00:49:24;100750.38;;;20.23;52.21
48200;BME280;33990;44.602;10.976;2023-04-26T00:51:54;100741.47;;;20.23;52.16
48200;BME280;33990;44.602;10.976;2023-04-26T00:54:22;100745.00;;;20.23;52.02
48200;BME280;33990;44.602;10.976;2023-04-26T00:56:50;100746.84;;;20.23;52.06
48200;BME280;33990;44.602;10.976;2023-04-26T00:59:19;100748.69;;;20.22;51.79
48200;BME280;33990;44.602;10.976;2023-04-26T01:01:47;100754.91;;;20.23;51.98
48200;BME280;33990;44.602;10.976;2023-04-26T01:04:15;100755.91;;;20.22;51.84
48200;BME280;33990;44.602;10.976;2023-04-26T01:06:44;100756.88;;;20.21;51.97
48200;BME280;33990;44.602;10.976;2023-04-26T01:09:12;100755.03;;;20.21;51.84
48200;BME280;33990;44.602;10.976;2023-04-26T01:11:42;100748.94;;;20.19;52.03
48200;BME280;33990;44.602;10.976;2023-04-26T01:14:10;100751.50;;;20.21;51.86
48200;BME280;33990;44.602;10.976;2023-04-26T01:16:38;100748.78;;;20.21;52.09
48200;BME280;33990;44.602;10.976;2023-04-26T01:19:08;100752.34;;;20.21;51.81
48200;BME280;33990;44.602;10.976;2023-04-26T01:21:39;100744.41;;;20.20;51.71
48200;BME280;33990;44.602;10.976;2023-04-26T01:24:11;100751.63;;;20.19;51.81
48200;BME280;33990;44.602;10.976;2023-04-26T01:26:40;100750.78;;;20.19;52.06
48200;BME280;33990;44.602;10.976;2023-04-26T01:29:17;100748.22;;;20.17;51.80
48200;BME280;33990;44.602;10.976;2023-04-26T01:31:46;100751.78;;;20.18;51.71
48200;BME280;33990;44.602;10.976;2023-04-26T01:34:14;100756.28;;;20.17;51.70
48200;BME280;33990;44.602;10.976;2023-04-26T01:36:45;100753.59;;;20.17;51.99
48200;BME280;33990;44.602;10.976;2023-04-26T01:39:12;100757.16;;;20.18;52.32
48200;BME280;33990;44.602;10.976;2023-04-26T01:41:39;100752.63;;;20.18;52.39
48200;BME280;33990;44.602;10.976;2023-04-26T01:44:07;100761.66;;;20.17;52.55
48200;BME280;33990;44.602;10.976;2023-04-26T01:46:34;100763.38;;;20.18;52.05
48200;BME280;33990;44.602;10.976;2023-04-26T01:49:01;100757.16;;;20.18;51.99
48200;BME280;33990;44.602;10.976;2023-04-26T01:51:29;100757.16;;;20.18;52.05
48200;BME280;33990;44.602;10.976;2023-04-26T01:53:56;100758.13;;;20.17;52.13
48200;BME280;33990;44.602;10.976;2023-04-26T01:56:24;100760.81;;;20.17;51.95
48200;BME280;33990;44.602;10.976;2023-04-26T01:58:52;100755.44;;;20.17;52.05
48200;BME280;33990;44.602;10.976;2023-04-26T02:01:22;100752.06;;;20.15;51.80
48200;BME280;33990;44.602;10.976;2023-04-26T02:03:51;100759.13;;;20.16;51.71
48200;BME280;33990;44.602;10.976;2023-04-26T02:06:19;100764.50;;;20.16;52.02
48200;BME280;33990;44.602;10.976;2023-04-26T02:08:47;100769.03;;;20.15;51.92
48200;BME280;33990;44.602;10.976;2023-04-26T02:11:15;100772.72;;;20.14;52.08
48200;BME280;33990;44.602;10.976;2023-04-26T02:13:43;100772.72;;;20.14;51.81
48200;BME280;33990;44.602;10.976;2023-04-26T02:16:10;100773.56;;;20.15;51.82
48200;BME280;33990;44.602;10.976;2023-04-26T02:18:38;100776.25;;;20.15;51.72
48200;BME280;33990;44.602;10.976;2023-04-26T02:21:07;100771.88;;;20.14;51.40
48200;BME280;33990;44.602;10.976;2023-04-26T02:23:35;100776.38;;;20.13;51.74
48200;BME280;33990;44.602;10.976;2023-04-26T02:26:03;100775.41;;;20.14;51.69
48200;BME280;33990;44.602;10.976;2023-04-26T02:28:30;100777.25;;;20.14;51.43
48200;BME280;33990;44.602;10.976;2023-04-26T02:30:58;100763.94;;;20.12;51.34
48200;BME280;33990;44.602;10.976;2023-04-26T02:33:25;100763.09;;;20.12;51.42
48200;BME280;33990;44.602;10.976;2023-04-26T02:35:53;100764.94;;;20.11;51.62
48200;BME280;33990;44.602;10.976;2023-04-26T02:38:20;100771.28;;;20.10;51.43
48200;BME280;33990;44.602;10.976;2023-04-26T02:40:48;100773.00;;;20.11;51.47
48200;BME280;33990;44.602;10.976;2023-04-26T02:43:16;100769.44;;;20.11;51.49
48200;BME280;33990;44.602;10.976;2023-04-26T02:45:43;100773.84;;;20.12;51.57
48200;BME280;33990;44.602;10.976;2023-04-26T02:48:12;100773.84;;;20.12;51.31
48200;BME280;33990;44.602;10.976;2023-04-26T02:50:40;100776.66;;;20.10;51.38
48200;BME280;33990;44.602;10.976;2023-04-26T02:53:08;100779.34;;;20.10;51.17
48200;BME280;33990;44.602;10.976;2023-04-26T02:55:37;100775.66;;;20.11;51.97
48200;BME280;33990;44.602;10.976;2023-04-26T02:58:05;100778.34;;;20.11;52.03
48200;BME280;33990;44.602;10.976;2023-04-26T03:00:32;100776.38;;;20.13;52.03
48200;BME280;33990;44.602;10.976;2023-04-26T03:03:00;100769.31;;;20.12;51.26
48200;BME280;33990;44.602;10.976;2023-04-26T03:05:29;100777.38;;;20.12;51.58
48200;BME280;33990;44.602;10.976;2023-04-26T03:07:57;100770.28;;;20.11;51.35
48200;BME280;33990;44.602;10.976;2023-04-26T03:10:24;100766.63;;;20.12;52.05
48200;BME280;33990;44.602;10.976;2023-04-26T03:12:51;100772.00;;;20.12;52.15
48200;BME280;33990;44.602;10.976;2023-04-26T03:15:19;100768.47;;;20.12;51.55
48200;BME280;33990;44.602;10.976;2023-04-26T03:17:46;100770.28;;;20.11;51.44
48200;BME280;33990;44.602;10.976;2023-04-26T03:20:14;100779.22;;;20.12;52.02
48200;BME280;33990;44.602;10.976;2023-04-26T03:22:41;100791.66;;;20.13;52.21
48200;BME280;33990;44.602;10.976;2023-04-26T03:25:09;100784.59;;;20.12;52.13
48200;BME280;33990;44.602;10.976;2023-04-26T03:27:37;100784.72;;;20.10;51.88
48200;BME280;33990;44.602;10.976;2023-04-26T03:30:05;100799.00;;;20.11;52.06
48200;BME280;33990;44.602;10.976;2023-04-26T03:32:34;100799.00;;;20.11;52.31
48200;BME280;33990;44.602;10.976;2023-04-26T03:35:01;100798.16;;;20.10;51.91
48200;BME280;33990;44.602;10.976;2023-04-26T03:37:31;100808.06;;;20.10;51.78
48200;BME280;33990;44.602;10.976;2023-04-26T03:40:03;100797.31;;;20.10;51.55
48200;BME280;33990;44.602;10.976;2023-04-26T03:42:32;100802.69;;;20.10;51.44
48200;BME280;33990;44.602;10.976;2023-04-26T03:44:59;100801.81;;;20.09;51.48
48200;BME280;33990;44.602;10.976;2023-04-26T03:47:26;100808.19;;;20.08;51.32
48200;BME280;33990;44.602;10.976;2023-04-26T03:49:54;100807.34;;;20.08;51.49
48200;BME280;33990;44.602;10.976;2023-04-26T03:52:21;100806.50;;;20.07;51.39
48200;BME280;33990;44.602;10.976;2023-04-26T03:54:49;100812.88;;;20.06;51.40
48200;BME280;33990;44.602;10.976;2023-04-26T03:57:17;100809.19;;;20.07;51.49
48200;BME280;33990;44.602;10.976;2023-04-26T03:59:44;100804.81;;;20.06;51.33
48200;BME280;33990;44.602;10.976;2023-04-26T04:02:11;100804.81;;;20.06;51.40
48200;BME280;33990;44.602;10.976;2023-04-26T04:04:40;100805.78;;;20.05;51.31
48200;BME280;33990;44.602;10.976;2023-04-26T04:07:08;100808.47;;;20.05;51.18
48200;BME280;33990;44.602;10.976;2023-04-26T04:09:35;100804.06;;;20.04;51.40
48200;BME280;33990;44.602;10.976;2023-04-26T04:12:03;100809.44;;;20.04;51.21
48200;BME280;33990;44.602;10.976;2023-04-26T04:14:31;100809.44;;;20.04;50.89
48200;BME280;33990;44.602;10.976;2023-04-26T04:16:59;100804.06;;;20.04;51.38
48200;BME280;33990;44.602;10.976;2023-04-26T04:19:28;100801.38;;;20.04;51.31
48200;BME280;33990;44.602;10.976;2023-04-26T04:21:55;100810.44;;;20.03;51.62
48200;BME280;33990;44.602;10.976;2023-04-26T04:24:24;100815.81;;;20.03;51.35
48200;BME280;33990;44.602;10.976;2023-04-26T04:26:51;100816.81;;;20.02;51.32
48200;BME280;33990;44.602;10.976;2023-04-26T04:29:19;100823.03;;;20.03;51.46
48200;BME280;33990;44.602;10.976;2023-04-26T04:31:47;100819.50;;;20.02;51.37
48200;BME280;33990;44.602;10.976;2023-04-26T04:34:14;100815.09;;;20.01;51.04
48200;BME280;33990;44.602;10.976;2023-04-26T04:36:43;100820.47;;;20.01;51.43
48200;BME280;33990;44.602;10.976;2023-04-26T04:39:10;100818.78;;;20.00;51.19
48200;BME280;33990;44.602;10.976;2023-04-26T04:41:44;100826.84;;;20.00;51.17
48200;BME280;33990;44.602;10.976;2023-04-26T04:44:16;100824.16;;;20.00;51.33
48200;BME280;33990;44.602;10.976;2023-04-26T04:46:44;100816.25;;;19.98;51.21
48200;BME280;33990;44.602;10.976;2023-04-26T04:49:11;100828.69;;;19.99;51.28
48200;BME280;33990;44.602;10.976;2023-04-26T04:51:39;100831.38;;;19.99;51.22
48200;BME280;33990;44.602;10.976;2023-04-26T04:56:37;100840.41;;;19.98;51.19
48200;BME280;33990;44.602;10.976;2023-04-26T04:59:05;100848.47;;;19.98;51.13
48200;BME280;33990;44.602;10.976;2023-04-26T05:01:34;100849.31;;;19.99;51.20
48200;BME280;33990;44.602;10.976;2023-04-26T05:04:05;100856.53;;;19.98;51.30
48200;BME280;33990;44.602;10.976;2023-04-26T05:06:34;100856.66;;;19.97;51.23
48200;BME280;33990;44.602;10.976;2023-04-26T05:09:02;100862.03;;;19.97;51.22
48200;BME280;33990;44.602;10.976;2023-04-26T05:11:31;100864.72;;;19.97;51.11
48200;BME280;33990;44.602;10.976;2023-04-26T05:14:00;100867.41;;;19.97;51.29
48200;BME280;33990;44.602;10.976;2023-04-26T05:16:28;100876.47;;;19.96;50.80
48200;BME280;33990;44.602;10.976;2023-04-26T05:18:57;100873.78;;;19.96;51.01
48200;BME280;33990;44.602;10.976;2023-04-26T05:21:25;100877.31;;;19.96;51.16
48200;BME280;33990;44.602;10.976;2023-04-26T05:23:52;100881.00;;;19.95;51.19
48200;BME280;33990;44.602;10.976;2023-04-26T05:26:20;100879.16;;;19.96;51.28
48200;BME280;33990;44.602;10.976;2023-04-26T05:28:55;100885.38;;;19.96;51.35
48200;BME280;33990;44.602;10.976;2023-04-26T05:31:40;100897.09;;;19.95;51.24
48200;BME280;33990;44.602;10.976;2023-04-26T05:34:26;100893.56;;;19.95;51.43
48200;BME280;33990;44.602;10.976;2023-04-26T05:36:56;100898.94;;;19.95;51.24
48200;BME280;33990;44.602;10.976;2023-04-26T05:39:23;100907.00;;;19.95;51.53
48200;BME280;33990;44.602;10.976;2023-04-26T05:41:51;100918.75;;;19.94;51.28
48200;BME280;33990;44.602;10.976;2023-04-26T05:44:18;100917.75;;;19.95;51.35
48200;BME280;33990;44.602;10.976;2023-04-26T05:46:46;100922.28;;;19.94;51.52
48200;BME280;33990;44.602;10.976;2023-04-26T05:49:13;100921.44;;;19.94;51.58
48200;BME280;33990;44.602;10.976;2023-04-26T05:51:41;100922.41;;;19.93;51.55
48200;BME280;33990;44.602;10.976;2023-04-26T05:54:08;100921.44;;;19.94;51.42
48200;BME280;33990;44.602;10.976;2023-04-26T05:56:35;100928.66;;;19.93;51.56
48200;BME280;33990;44.602;10.976;2023-04-26T05:59:03;100927.66;;;19.94;51.47
48200;BME280;33990;44.602;10.976;2023-04-26T06:01:32;100928.66;;;19.93;51.48
48200;BME280;33990;44.602;10.976;2023-04-26T06:04:00;100931.34;;;19.93;51.58
48200;BME280;33990;44.602;10.976;2023-04-26T06:06:35;100930.47;;;19.93;51.63
48200;BME280;33990;44.602;10.976;2023-04-26T06:09:03;100934.88;;;19.94;51.48
48200;BME280;33990;44.602;10.976;2023-04-26T06:11:30;100948.31;;;19.94;51.83
48200;BME280;33990;44.602;10.976;2023-04-26T06:13:57;100951.00;;;19.94;52.11
48200;BME280;33990;44.602;10.976;2023-04-26T06:16:25;100948.31;;;19.94;52.04
48200;BME280;33990;44.602;10.976;2023-04-26T06:18:52;100948.31;;;19.94;52.15
48200;BME280;33990;44.602;10.976;2023-04-26T06:21:20;100951.41;;;19.89;46.43
48200;BME280;33990;44.602;10.976;2023-04-26T06:23:47;100946.59;;;19.72;45.67
48200;BME280;33990;44.602;10.976;2023-04-26T06:26:17;100958.06;;;19.53;45.96
48200;BME280;33990;44.602;10.976;2023-04-26T06:28:44;100949.84;;;19.34;46.02
48200;BME280;33990;44.602;10.976;2023-04-26T06:31:13;100953.94;;;19.17;46.59
48200;BME280;33990;44.602;10.976;2023-04-26T06:33:40;100959.19;;;19.07;47.53
48200;BME280;33990;44.602;10.976;2023-04-26T06:36:10;100961.41;;;19.02;47.93
48200;BME280;33990;44.602;10.976;2023-04-26T06:38:40;100963.50;;;18.98;48.05
48200;BME280;33990;44.602;10.976;2023-04-26T06:41:07;100972.16;;;19.02;48.28
48200;BME280;33990;44.602;10.976;2023-04-26T06:43:35;100974.59;;;19.05;48.41
48200;BME280;33990;44.602;10.976;2023-04-26T06:46:06;100975.31;;;19.07;47.97
48200;BME280;33990;44.602;10.976;2023-04-26T06:48:34;100977.59;;;19.12;48.61
48200;BME280;33990;44.602;10.976;2023-04-26T06:51:06;100982.63;;;19.16;47.69
48200;BME280;33990;44.602;10.976;2023-04-26T06:53:35;100983.56;;;19.15;46.94
48200;BME280;33990;44.602;10.976;2023-04-26T06:56:02;100990.91;;;19.13;47.11
48200;BME280;33990;44.602;10.976;2023-04-26T06:58:30;100994.44;;;19.14;47.47
48200;BME280;33990;44.602;10.976;2023-04-26T07:00:57;100993.59;;;19.13;47.82
48200;BME280;33990;44.602;10.976;2023-04-26T07:03:25;100992.47;;;19.16;47.99
48200;BME280;33990;44.602;10.976;2023-04-26T07:05:54;100995.75;;;19.19;47.80
48200;BME280;33990;44.602;10.976;2023-04-26T07:08:22;101000.16;;;19.20;47.82
48200;BME280;33990;44.602;10.976;2023-04-26T07:10:49;101007.00;;;19.24;47.68
48200;BME280;33990;44.602;10.976;2023-04-26T07:13:17;101002.94;;;19.30;47.88
48200;BME280;33990;44.602;10.976;2023-04-26T07:15:45;101001.56;;;19.36;47.49
48200;BME280;33990;44.602;10.976;2023-04-26T07:18:13;100994.94;;;19.40;47.14
48200;BME280;33990;44.602;10.976;2023-04-26T07:20:40;101001.75;;;19.44;47.06
48200;BME280;33990;44.602;10.976;2023-04-26T07:23:08;100996.16;;;19.47;46.81
48200;BME280;33990;44.602;10.976;2023-04-26T07:25:35;100996.59;;;19.52;47.89
48200;BME280;33990;44.602;10.976;2023-04-26T07:28:03;100989.03;;;19.57;48.47
48200;BME280;33990;44.602;10.976;2023-04-26T07:30:30;100989.53;;;19.62;48.82
48200;BME280;33990;44.602;10.976;2023-04-26T07:32:58;100986.44;;;19.67;48.71
48200;BME280;33990;44.602;10.976;2023-04-26T07:35:25;100993.13;;;19.72;48.72
48200;BME280;33990;44.602;10.976;2023-04-26T07:37:53;100983.97;;;19.75;48.80
48200;BME280;33990;44.602;10.976;2023-04-26T07:40:20;100979.19;;;19.79;48.91
48200;BME280;33990;44.602;10.976;2023-04-26T07:42:50;100983.31;;;19.83;48.75
48200;BME280;33990;44.602;10.976;2023-04-26T07:45:19;100979.50;;;19.85;49.00
48200;BME280;33990;44.602;10.976;2023-04-26T07:47:46;100976.53;;;19.88;49.13
48200;BME280;33990;44.602;10.976;2023-04-26T07:50:13;100974.59;;;19.90;49.13
48200;BME280;33990;44.602;10.976;2023-04-26T07:52:41;100977.97;;;19.92;49.27
48200;BME280;33990;44.602;10.976;2023-04-26T07:55:09;100973.19;;;19.96;49.37
48200;BME280;33990;44.602;10.976;2023-04-26T07:57:37;100981.16;;;19.97;49.37
48200;BME280;33990;44.602;10.976;2023-04-26T08:00:06;100974.63;;;20.00;49.39
48200;BME280;33990;44.602;10.976;2023-04-26T08:02:38;100985.28;;;20.02;49.26
48200;BME280;33990;44.602;10.976;2023-04-26T08:05:11;100978.06;;;20.02;49.47
48200;BME280;33990;44.602;10.976;2023-04-26T08:07:40;100984.97;;;20.05;49.38
48200;BME280;33990;44.602;10.976;2023-04-26T08:10:09;100985.72;;;20.07;49.41
48200;BME280;33990;44.602;10.976;2023-04-26T08:12:37;100986.56;;;20.07;49.62
48200;BME280;33990;44.602;10.976;2023-04-26T08:15:05;100991.78;;;20.09;49.68
48200;BME280;33990;44.602;10.976;2023-04-26T08:17:32;100992.63;;;20.09;49.71
48200;BME280;33990;44.602;10.976;2023-04-26T08:20:00;100996.06;;;20.11;49.60
48200;BME280;33990;44.602;10.976;2023-04-26T08:22:28;100993.38;;;20.11;49.67
48200;BME280;33990;44.602;10.976;2023-04-26T08:24:55;100990.69;;;20.11;49.68
48200;BME280;33990;44.602;10.976;2023-04-26T08:27:22;100994.22;;;20.12;49.72
48200;BME280;33990;44.602;10.976;2023-04-26T08:29:50;100994.97;;;20.14;49.80
48200;BME280;33990;44.602;10.976;2023-04-26T08:32:17;100994.97;;;20.14;49.80
48200;BME280;33990;44.602;10.976;2023-04-26T08:34:45;100997.66;;;20.14;49.91
48200;BME280;33990;44.602;10.976;2023-04-26T08:37:12;100998.50;;;20.14;49.77
48200;BME280;33990;44.602;10.976;2023-04-26T08:39:39;100999.19;;;20.16;49.72
48200;BME280;33990;44.602;10.976;2023-04-26T08:42:15;101000.88;;;20.17;49.89
48200;BME280;33990;44.602;10.976;2023-04-26T08:44:43;101003.56;;;20.17;49.88
48200;BME280;33990;44.602;10.976;2023-04-26T08:49:52;101005.16;;;20.20;49.89
48200;BME280;33990;44.602;10.976;2023-04-26T08:52:30;101005.00;;;20.21;50.05
48200;BME280;33990;44.602;10.976;2023-04-26T08:54:58;101000.38;;;20.23;49.92
48200;BME280;33990;44.602;10.976;2023-04-26T08:57:26;101006.59;;;20.24;49.92
48200;BME280;33990;44.602;10.976;2023-04-26T08:59:54;101005.59;;;20.25;49.39
48200;BME280;33990;44.602;10.976;2023-04-26T09:02:23;101000.13;;;20.27;49.25
48200;BME280;33990;44.602;10.976;2023-04-26T09:04:51;100992.03;;;20.27;48.58
48200;BME280;33990;44.602;10.976;2023-04-26T09:07:30;100989.34;;;20.27;48.81
48200;BME280;33990;44.602;10.976;2023-04-26T09:09:58;100995.44;;;20.29;47.03
48200;BME280;33990;44.602;10.976;2023-04-26T09:12:26;100988.09;;;20.31;47.36
48200;BME280;33990;44.602;10.976;2023-04-26T09:14:54;100988.09;;;20.31;48.09
48200;BME280;33990;44.602;10.976;2023-04-26T09:17:32;100984.69;;;20.29;46.66
48200;BME280;33990;44.602;10.976;2023-04-26T09:20:01;100986.53;;;20.28;47.33
48200;BME280;33990;44.602;10.976;2023-04-26T09:22:35;100984.84;;;20.27;47.37
48200;BME280;33990;44.602;10.976;2023-04-26T09:25:04;100983.72;;;20.30;46.15
48200;BME280;33990;44.602;10.976;2023-04-26T09:30:16;100979.19;;;20.30;46.27
48200;BME280;33990;44.602;10.976;2023-04-26T09:32:57;100979.91;;;20.32;46.54
48200;BME280;33990;44.602;10.976;2023-04-26T09:40:44;100975.38;;;20.33;47.32
48200;BME280;33990;44.602;10.976;2023-04-26T09:43:16;100979.03;;;20.32;46.81
48200;BME280;33990;44.602;10.976;2023-04-26T09:45:57;100980.75;;;20.33;46.91
48200;BME280;33990;44.602;10.976;2023-04-26T09:48:27;100975.38;;;20.33;46.90
48200;BME280;33990;44.602;10.976;2023-04-26T09:53:37;100969.28;;;20.31;47.07
48200;BME280;33990;44.602;10.976;2023-04-26T09:56:14;100962.91;;;20.32;46.89
48200;BME280;33990;44.602;10.976;2023-04-26T09:58:55;100974.78;;;20.29;47.36
48200;BME280;33990;44.602;10.976;2023-04-26T10:01:26;100965.88;;;20.29;47.69
48200;BME280;33990;44.602;10.976;2023-04-26T10:03:56;100961.47;;;20.28;47.43
48200;BME280;33990;44.602;10.976;2023-04-26T10:06:27;100967.84;;;20.27;47.19
48200;BME280;33990;44.602;10.976;2023-04-26T10:08:55;100960.78;;;20.25;47.26
48200;BME280;33990;44.602;10.976;2023-04-26T10:11:23;100964.31;;;20.26;47.60
48200;BME280;33990;44.602;10.976;2023-04-26T10:13:50;100958.94;;;20.26;47.49
48200;BME280;33990;44.602;10.976;2023-04-26T10:16:19;100958.94;;;20.26;46.95
48200;BME280;33990;44.602;10.976;2023-04-26T10:18:47;100951.72;;;20.27;47.61
48200;BME280;33990;44.602;10.976;2023-04-26T10:21:21;100955.41;;;20.25;47.67
48200;BME280;33990;44.602;10.976;2023-04-26T10:23:50;100950.03;;;20.25;47.53
48200;BME280;33990;44.602;10.976;2023-04-26T10:29:21;100944.66;;;20.25;47.46
48200;BME280;33990;44.602;10.976;2023-04-26T10:34:30;100940.81;;;20.28;46.36
48200;BME280;33990;44.602;10.976;2023-04-26T10:37:14;100947.03;;;20.29;47.20
48200;BME280;33990;44.602;10.976;2023-04-26T10:39:44;100948.03;;;20.28;47.29
48200;BME280;33990;44.602;10.976;2023-04-26T10:42:27;100937.13;;;20.29;47.13
48200;BME280;33990;44.602;10.976;2023-04-26T10:44:57;100931.75;;;20.29;45.70
48200;BME280;33990;44.602;10.976;2023-04-26T10:47:31;100929.94;;;20.30;46.65
48200;BME280;33990;44.602;10.976;2023-04-26T10:50:09;100925.41;;;20.30;47.24
48200;BME280;33990;44.602;10.976;2023-04-26T10:55:40;100922.00;;;20.28;45.82
48200;BME280;33990;44.602;10.976;2023-04-26T11:01:21;100927.38;;;20.28;46.42
48200;BME280;33990;44.602;10.976;2023-04-26T11:06:26;100923.25;;;20.24;45.02
48200;BME280;33990;44.602;10.976;2023-04-26T11:08:53;100923.66;;;20.19;44.97
48200;BME280;33990;44.602;10.976;2023-04-26T11:11:24;100921.81;;;20.10;44.00
48200;BME280;33990;44.602;10.976;2023-04-26T11:13:53;100913.69;;;20.00;44.00
48200;BME280;33990;44.602;10.976;2023-04-26T11:16:20;100905.31;;;19.94;44.15
48200;BME280;33990;44.602;10.976;2023-04-26T11:18:48;100901.19;;;19.90;44.72
48200;BME280;33990;44.602;10.976;2023-04-26T11:21:16;100893.13;;;19.90;45.01
48200;BME280;33990;44.602;10.976;2023-04-26T11:23:53;100894.69;;;19.92;45.36
48200;BME280;33990;44.602;10.976;2023-04-26T11:26:21;100897.97;;;19.96;45.27
48200;BME280;33990;44.602;10.976;2023-04-26T11:28:48;100894.16;;;19.98;45.50
48200;BME280;33990;44.602;10.976;2023-04-26T11:31:17;100886.81;;;20.00;45.56
48200;BME280;33990;44.602;10.976;2023-04-26T11:33:45;100890.22;;;20.03;45.77
48200;BME280;33990;44.602;10.976;2023-04-26T11:36:16;100884.59;;;20.06;45.38
48200;BME280;33990;44.602;10.976;2023-04-26T11:38:45;100886.13;;;20.08;45.82
48200;BME280;33990;44.602;10.976;2023-04-26T11:41:13;100886.00;;;20.10;45.96
48200;BME280;33990;44.602;10.976;2023-04-26T11:43:40;100877.94;;;20.10;46.09
48200;BME280;33990;44.602;10.976;2023-04-26T11:46:08;100871.59;;;20.11;45.99
48200;BME280;33990;44.602;10.976;2023-04-26T11:48:37;100865.22;;;20.12;46.07
48200;BME280;33990;44.602;10.976;2023-04-26T11:51:05;100867.75;;;20.13;45.15
48200;BME280;33990;44.602;10.976;2023-04-26T11:53:41;100865.78;;;20.15;45.19
48200;BME280;33990;44.602;10.976;2023-04-26T11:56:18;100863.94;;;20.16;45.71
48200;BME280;33990;44.602;10.976;2023-04-26T11:58:50;100871.03;;;20.17;45.30
48200;BME280;33990;44.602;10.976;2023-04-26T12:01:28;100861.13;;;20.17;45.52
48200;BME280;33990;44.602;10.976;2023-04-26T12:03:58;100857.47;;;20.18;45.62
48200;BME280;33990;44.602;10.976;2023-04-26T12:06:30;100852.09;;;20.18;46.29
48200;BME280;33990;44.602;10.976;2023-04-26T12:09:03;100856.47;;;20.19;46.52
48200;BME280;33990;44.602;10.976;2023-04-26T12:11:32;100851.09;;;20.19;46.33
48200;BME280;33990;44.602;10.976;2023-04-26T12:14:00;100858.03;;;20.22;45.65
48200;BME280;33990;44.602;10.976;2023-04-26T12:16:27;100860.59;;;20.23;45.03
48200;BME280;33990;44.602;10.976;2023-04-26T12:18:56;100862.28;;;20.24;45.43
48200;BME280;33990;44.602;10.976;2023-04-26T12:21:23;100857.75;;;20.25;44.98
48200;BME280;33990;44.602;10.976;2023-04-26T12:23:54;100863.00;;;20.27;44.87
48200;BME280;33990;44.602;10.976;2023-04-26T12:26:21;100851.25;;;20.28;44.16
48200;BME280;33990;44.602;10.976;2023-04-26T12:28:48;100861.88;;;20.29;44.26
48200;BME280;33990;44.602;10.976;2023-04-26T12:31:16;100858.31;;;20.29;44.99
48200;BME280;33990;44.602;10.976;2023-04-26T12:33:43;100857.38;;;20.30;45.68
48200;BME280;33990;44.602;10.976;2023-04-26T12:36:11;100852.94;;;20.29;45.67
48200;BME280;33990;44.602;10.976;2023-04-26T12:38:39;100855.63;;;20.29;46.31
48200;BME280;33990;44.602;10.976;2023-04-26T12:41:06;100847.56;;;20.29;46.03
48200;BME280;33990;44.602;10.976;2023-04-26T12:43:34;100847.47;;;20.30;44.99
48200;BME280;33990;44.602;10.976;2023-04-26T12:46:01;100847.47;;;20.30;45.14
48200;BME280;33990;44.602;10.976;2023-04-26T12:48:29;100851.84;;;20.31;44.02
48200;BME280;33990;44.602;10.976;2023-04-26T12:50:56;100848.16;;;20.32;44.13
48200;BME280;33990;44.602;10.976;2023-04-26T12:53:24;100843.63;;;20.33;45.60
48200;BME280;33990;44.602;10.976;2023-04-26T12:55:51;100857.06;;;20.33;46.11
48200;BME280;33990;44.602;10.976;2023-04-26T12:58:19;100851.84;;;20.31;45.57
48200;BME280;33990;44.602;10.976;2023-04-26T13:00:48;100846.31;;;20.33;44.80
48200;BME280;33990;44.602;10.976;2023-04-26T13:03:17;100843.63;;;20.33;43.61
48200;BME280;33990;44.602;10.976;2023-04-26T13:05:44;100848.72;;;20.36;43.63
48200;BME280;33990;44.602;10.976;2023-04-26T13:08:12;100845.88;;;20.37;43.01
48200;BME280;33990;44.602;10.976;2023-04-26T13:10:39;100842.34;;;20.37;43.64
48200;BME280;33990;44.602;10.976;2023-04-26T13:13:07;100847.72;;;20.37;43.71
48200;BME280;33990;44.602;10.976;2023-04-26T13:15:34;100838.69;;;20.38;42.83
48200;BME280;33990;44.602;10.976;2023-04-26T13:18:02;100845.78;;;20.39;43.47
48200;BME280;33990;44.602;10.976;2023-04-26T13:20:30;100837.72;;;20.39;44.89